New Orleans NAS, Louisiana
Current Conditions -  °F | °C
As of 10:55 PM on Sunday 21 Dec 2014 (Local Time) from KNBG Reporting Station
Haze Haze  
Wind Chill: 57°   Ceiling: 900
Heat Index: 57°   Visibility: 5mi
Dew Point: 55°   Wind: 5mph
Humidity: 93%   Direction: 40°NE
Pressure: 29.95"   Gusts: NA
Location:  29.83°N, 90.02°W
Report Text: KNBG 220455Z AUTO 04004KT 5SM BR BKN009 OVC040 14/13 A2995 RMK AO2 SLP140 T01390128 $
Loading
Personal Weather Stations






























Interactive Weather Map New forecast layout! Learn more

10-Day Weather Forecast

Advertisements
Track Severe Weather on mobile